createdAt,value
2018-08-22T00:00:03.741Z,1.00
2018-08-22T00:02:39.080Z,1.07
2018-08-22T00:05:14.253Z,0.93
2018-08-22T00:07:49.346Z,0.80
2018-08-22T00:10:24.192Z,1.00
2018-08-22T00:12:59.101Z,0.90
2018-08-22T00:15:35.196Z,0.83
2018-08-22T00:18:09.240Z,1.10
2018-08-22T00:20:43.976Z,1.00
2018-08-22T00:23:17.880Z,0.90
2018-08-22T00:25:52.643Z,0.83
2018-08-22T00:28:26.644Z,1.00
2018-08-22T00:31:01.459Z,0.73
2018-08-22T00:33:35.574Z,1.00
2018-08-22T00:36:10.442Z,1.00
2018-08-22T00:38:45.580Z,0.90
2018-08-22T00:41:20.205Z,0.80
2018-08-22T00:43:54.095Z,0.80
2018-08-22T00:46:28.361Z,0.93
2018-08-22T00:49:03.044Z,0.80
2018-08-22T00:51:36.849Z,0.80
2018-08-22T00:54:11.657Z,0.90
2018-08-22T00:56:46.388Z,0.97
2018-08-22T00:59:21.913Z,0.77
2018-08-22T01:01:55.766Z,0.80
2018-08-22T01:04:30.128Z,1.00
2018-08-22T01:07:04.257Z,0.80
2018-08-22T01:09:39.486Z,0.77
2018-08-22T01:12:13.771Z,0.70
2018-08-22T01:14:47.889Z,1.00
2018-08-22T01:17:22.665Z,1.00
2018-08-22T01:19:57.325Z,1.10
2018-08-22T01:22:31.845Z,1.00
2018-08-22T01:25:05.828Z,1.10
2018-08-22T01:27:44.189Z,0.70
2018-08-22T01:30:18.212Z,0.90
2018-08-22T01:32:53.369Z,1.10
2018-08-22T01:35:27.805Z,1.07
2018-08-22T01:38:02.029Z,1.00
2018-08-22T01:40:35.872Z,1.00
2018-08-22T01:43:11.788Z,0.80
2018-08-22T01:45:46.174Z,0.80
2018-08-22T01:48:21.029Z,1.00
2018-08-22T01:50:55.660Z,1.17
2018-08-22T01:53:29.615Z,1.03
2018-08-22T01:56:03.606Z,0.87
2018-08-22T01:58:37.917Z,1.00
2018-08-22T02:01:13.416Z,1.00
2018-08-22T02:03:48.100Z,0.93
2018-08-22T02:06:22.179Z,0.90
2018-08-22T02:08:56.921Z,0.90
2018-08-22T02:11:31.250Z,0.90
2018-08-22T02:14:05.245Z,0.80
2018-08-22T02:16:39.075Z,0.90
2018-08-22T02:19:14.192Z,1.23
2018-08-22T02:21:48.116Z,0.80
2018-08-22T02:24:22.680Z,1.00
2018-08-22T02:26:58.186Z,1.00
2018-08-22T02:29:33.313Z,1.27
2018-08-22T02:32:08.255Z,1.10
2018-08-22T02:34:43.098Z,1.12
2018-08-22T02:37:17.412Z,1.30
2018-08-22T02:39:52.303Z,0.63
2018-08-22T02:42:26.334Z,1.00
2018-08-22T02:45:01.684Z,0.93
2018-08-22T02:47:36.252Z,1.10
2018-08-22T02:50:11.469Z,1.10
2018-08-22T02:52:46.395Z,0.93
2018-08-22T02:55:20.388Z,1.10
2018-08-22T02:57:55.330Z,1.10
2018-08-22T03:00:29.989Z,1.00
2018-08-22T03:03:04.357Z,1.00
2018-08-22T03:05:41.624Z,1.10
2018-08-22T03:08:17.567Z,1.13
2018-08-22T03:10:52.155Z,1.13
2018-08-22T03:13:26.399Z,1.10
2018-08-22T03:16:01.062Z,1.00
2018-08-22T03:18:36.598Z,0.93
2018-08-22T03:21:10.737Z,0.97
2018-08-22T03:23:44.921Z,1.37
2018-08-22T03:26:19.679Z,1.23
2018-08-22T03:28:54.893Z,0.83
2018-08-22T03:31:30.032Z,1.17
2018-08-22T03:34:04.939Z,1.20
2018-08-22T03:36:39.330Z,1.50
2018-08-22T03:39:14.428Z,1.30
2018-08-22T03:41:48.539Z,1.40
2018-08-22T03:44:24.553Z,1.33
2018-08-22T03:46:58.690Z,1.20
2018-08-22T03:49:33.385Z,1.23
2018-08-22T03:52:07.435Z,1.50
2018-08-22T03:54:42.779Z,1.50
2018-08-22T03:57:18.433Z,1.40
2018-08-22T03:59:53.099Z,1.30
2018-08-22T04:02:27.870Z,1.20
2018-08-22T04:05:02.645Z,1.40
2018-08-22T04:07:36.563Z,1.27
2018-08-22T04:10:12.425Z,1.23
2018-08-22T04:12:47.069Z,1.33
2018-08-22T04:15:21.349Z,1.40
2018-08-22T04:17:55.492Z,1.47
2018-08-22T04:20:29.932Z,1.60
2018-08-22T04:23:04.665Z,1.33
2018-08-22T04:25:40.112Z,1.43
2018-08-22T04:28:14.113Z,1.40
2018-08-22T04:30:47.963Z,1.30
2018-08-22T04:33:22.085Z,1.40
2018-08-22T04:35:56.046Z,1.40
2018-08-22T04:38:29.934Z,1.20
2018-08-22T04:41:04.897Z,1.50
2018-08-22T04:43:38.935Z,1.30
2018-08-22T04:46:13.330Z,1.37
2018-08-22T04:48:47.236Z,1.63
2018-08-22T04:51:21.205Z,2.13
2018-08-22T04:53:55.159Z,1.70
2018-08-22T04:56:29.143Z,1.73
2018-08-22T04:59:03.099Z,1.30
2018-08-22T05:01:39.195Z,1.70
2018-08-22T05:04:13.332Z,1.57
2018-08-22T05:06:47.406Z,1.30
2018-08-22T05:09:21.443Z,1.20
2018-08-22T05:11:57.235Z,1.20
2018-08-22T05:14:31.915Z,1.27
2018-08-22T05:17:10.124Z,1.60
2018-08-22T05:19:45.058Z,1.60
2018-08-22T05:22:22.757Z,1.60
2018-08-22T05:24:56.877Z,1.20
2018-08-22T05:27:43.772Z,1.17
2018-08-22T05:30:19.159Z,1.10
2018-08-22T05:33:43.785Z,1.50
2018-08-22T05:36:21.256Z,1.20
2018-08-22T05:42:39.992Z,1.30
2018-08-22T05:48:42.869Z,1.53
2018-08-22T05:51:18.310Z,1.50
2018-08-22T05:54:05.016Z,1.93
2018-08-22T05:56:43.451Z,0.80
2018-08-22T06:02:20.185Z,1.07
2018-08-22T06:19:09.932Z,0.90
2018-08-22T06:21:45.193Z,0.67
2018-08-22T06:24:19.683Z,0.80
2018-08-22T06:26:54.712Z,0.90
2018-08-22T06:29:28.917Z,1.10
2018-08-22T06:32:05.559Z,0.50
2018-08-22T06:34:51.470Z,0.67
2018-08-22T06:37:25.744Z,0.70
2018-08-22T06:40:00.828Z,0.70
2018-08-22T06:42:37.076Z,0.47
2018-08-22T06:45:11.342Z,0.40
2018-08-22T06:47:45.512Z,0.40
2018-08-22T06:50:19.499Z,0.40
2018-08-22T06:52:54.218Z,0.37
2018-08-22T06:58:13.384Z,0.40
2018-08-22T07:00:47.285Z,0.20
2018-08-22T07:03:21.072Z,0.30
2018-08-22T07:05:54.851Z,0.50
2018-08-22T07:08:28.678Z,0.30
2018-08-22T07:11:02.765Z,0.30
2018-08-22T07:13:36.716Z,0.30
2018-08-22T07:16:10.685Z,0.20
2018-08-22T07:18:44.576Z,0.30
2018-08-22T07:21:18.508Z,0.20
2018-08-22T07:23:52.478Z,0.30
2018-08-22T07:26:26.590Z,0.20
2018-08-22T07:29:00.638Z,0.20
2018-08-22T07:31:35.113Z,0.40
2018-08-22T07:34:09.046Z,0.30
2018-08-22T07:36:43.202Z,0.27
2018-08-22T07:39:17.124Z,0.30
2018-08-22T07:41:50.875Z,0.30
2018-08-22T07:44:24.850Z,0.30
2018-08-22T07:46:58.802Z,0.30
2018-08-22T07:49:32.580Z,0.30
2018-08-22T07:52:06.679Z,0.40
2018-08-22T07:54:43.722Z,0.27
2018-08-22T07:57:20.753Z,0.20
2018-08-22T07:59:54.712Z,0.50
2018-08-22T08:02:28.543Z,0.30
2018-08-22T08:05:02.680Z,0.50
2018-08-22T08:07:36.501Z,0.43
2018-08-22T08:10:12.235Z,0.37
2018-08-22T08:12:46.295Z,0.40
2018-08-22T08:15:20.473Z,0.50
2018-08-22T08:17:54.255Z,0.43
2018-08-22T08:20:28.102Z,0.40
2018-08-22T08:23:01.950Z,0.50
2018-08-22T08:25:36.129Z,0.40
2018-08-22T08:28:10.040Z,0.50
2018-08-22T08:30:43.948Z,0.50
2018-08-22T08:33:17.924Z,0.50
2018-08-22T08:35:51.773Z,0.40
2018-08-22T08:38:25.497Z,0.40
2018-08-22T08:40:59.376Z,0.50
2018-08-22T08:43:33.232Z,0.40
2018-08-22T08:46:07.124Z,0.40
2018-08-22T08:48:40.925Z,0.50
2018-08-22T08:51:14.798Z,0.57
2018-08-22T08:53:49.239Z,0.67
2018-08-22T08:56:23.051Z,0.40
2018-08-22T08:58:57.083Z,0.60
2018-08-22T09:01:31.168Z,0.40
2018-08-22T09:04:05.172Z,0.70
2018-08-22T09:06:39.253Z,0.60
2018-08-22T09:09:13.050Z,0.87
2018-08-22T09:12:03.548Z,0.60
2018-08-22T09:14:37.450Z,0.40
2018-08-22T09:17:11.251Z,0.57
2018-08-22T09:19:45.340Z,0.70
2018-08-22T09:22:19.151Z,0.40
2018-08-22T09:24:53.265Z,0.70
2018-08-22T09:27:27.141Z,0.80
2018-08-22T09:30:00.953Z,0.60
2018-08-22T09:32:34.929Z,0.90
2018-08-22T09:35:08.876Z,0.70
2018-08-22T09:37:42.897Z,0.90
2018-08-22T09:40:16.807Z,1.10
2018-08-22T09:42:50.503Z,0.90
2018-08-22T09:45:24.251Z,0.80
2018-08-22T09:47:58.349Z,0.90
2018-08-22T09:50:32.120Z,0.90
2018-08-22T09:53:06.047Z,1.17
2018-08-22T09:55:39.960Z,1.00
2018-08-22T09:58:14.004Z,0.87
2018-08-22T10:00:53.321Z,1.17
2018-08-22T10:03:27.400Z,0.90
2018-08-22T10:06:01.282Z,1.10
2018-08-22T10:08:35.133Z,0.90
2018-08-22T10:11:09.048Z,1.20
2018-08-22T10:13:43.526Z,1.03
2018-08-22T10:16:17.500Z,1.43
2018-08-22T10:18:51.693Z,1.00
2018-08-22T10:21:26.221Z,0.90
2018-08-22T10:24:00.016Z,1.10
2018-08-22T10:26:33.678Z,1.10
2018-08-22T10:29:07.649Z,1.20
2018-08-22T10:31:41.535Z,1.00
2018-08-22T10:34:15.436Z,0.90
2018-08-22T10:36:49.391Z,0.90
2018-08-22T10:39:24.101Z,0.90
2018-08-22T10:41:57.937Z,1.00
2018-08-22T10:44:31.866Z,0.97
2018-08-22T10:47:05.719Z,1.00
2018-08-22T10:49:39.625Z,0.80
2018-08-22T10:52:13.440Z,0.80
2018-08-22T10:54:47.238Z,0.80
2018-08-22T10:57:21.061Z,0.70
2018-08-22T10:59:54.834Z,0.80
2018-08-22T11:02:28.538Z,0.80
2018-08-22T11:05:02.392Z,0.80
2018-08-22T11:07:36.266Z,0.80
2018-08-22T11:10:10.247Z,0.70
2018-08-22T11:12:44.102Z,0.70
2018-08-22T11:15:18.318Z,0.83
2018-08-22T11:17:52.381Z,0.67
2018-08-22T11:20:26.998Z,1.00
2018-08-22T11:23:06.317Z,1.17
2018-08-22T11:25:45.838Z,0.73
2018-08-22T11:28:25.173Z,0.83
2018-08-22T11:31:04.524Z,0.90
2018-08-22T11:33:44.203Z,0.50
2018-08-22T11:36:17.318Z,0.70
2018-08-22T11:38:51.117Z,0.90
2018-08-22T11:41:25.050Z,1.10
2018-08-22T11:43:58.894Z,0.83
2018-08-22T11:46:32.768Z,0.80
2018-08-22T11:49:06.557Z,0.90
2018-08-22T11:51:40.396Z,0.90
2018-08-22T11:54:14.290Z,1.00
2018-08-22T11:56:48.153Z,0.90
2018-08-22T11:59:21.923Z,1.07
2018-08-22T12:01:56.092Z,0.80
2018-08-22T12:04:30.026Z,0.90
2018-08-22T12:07:03.744Z,0.90
2018-08-22T12:09:37.574Z,0.90
2018-08-22T12:12:11.548Z,1.20
2018-08-22T12:14:45.330Z,1.00
2018-08-22T12:17:19.325Z,1.97
2018-08-22T12:19:53.161Z,0.70
2018-08-22T12:22:27.055Z,0.90
2018-08-22T12:25:01.109Z,0.80
2018-08-22T12:27:34.975Z,1.03
2018-08-22T12:30:08.758Z,0.80
2018-08-22T12:32:42.608Z,1.10
2018-08-22T12:35:17.627Z,1.00
2018-08-22T12:37:51.649Z,0.80
2018-08-22T12:40:25.419Z,1.00
2018-08-22T12:42:59.410Z,0.90
2018-08-22T12:45:33.158Z,0.80
2018-08-22T12:48:07.019Z,0.70
2018-08-22T12:50:41.012Z,0.70
2018-08-22T12:53:15.087Z,0.90
2018-08-22T12:55:48.945Z,0.63
2018-08-22T12:58:22.963Z,0.90
2018-08-22T13:00:56.686Z,0.90
2018-08-22T13:03:30.916Z,0.83
2018-08-22T13:06:05.197Z,0.90
2018-08-22T13:08:39.099Z,0.80
2018-08-22T13:11:13.186Z,1.13
2018-08-22T13:13:47.100Z,1.47
2018-08-22T13:16:21.002Z,0.87
2018-08-22T13:18:54.665Z,0.80
2018-08-22T13:21:28.649Z,1.07
2018-08-22T13:24:02.441Z,0.83
2018-08-22T13:26:47.514Z,0.97
2018-08-22T13:29:21.379Z,1.07
2018-08-22T13:31:55.509Z,1.17
2018-08-22T13:34:29.343Z,0.90
2018-08-22T13:37:03.259Z,1.23
2018-08-22T13:39:36.940Z,1.00
2018-08-22T13:42:10.876Z,0.90
2018-08-22T13:44:44.870Z,1.10
2018-08-22T13:47:18.718Z,0.97
2018-08-22T13:49:52.528Z,1.00
2018-08-22T13:52:26.354Z,1.10
2018-08-22T13:55:00.182Z,1.00
2018-08-22T13:57:33.996Z,1.03
2018-08-22T14:00:08.156Z,0.93
2018-08-22T14:02:42.033Z,0.87
2018-08-22T14:05:15.879Z,0.90
2018-08-22T14:07:49.805Z,0.87
2018-08-22T14:10:23.527Z,0.97
2018-08-22T14:12:57.569Z,0.83
2018-08-22T14:15:31.347Z,0.73
2018-08-22T14:18:05.292Z,1.10
2018-08-22T14:20:39.148Z,1.10
2018-08-22T14:23:13.201Z,1.00
2018-08-22T14:25:47.196Z,0.90
2018-08-22T14:28:21.265Z,0.90
2018-08-22T14:30:55.007Z,1.33
2018-08-22T14:33:28.834Z,0.93
2018-08-22T14:36:02.942Z,1.17
2018-08-22T14:38:36.880Z,0.80
2018-08-22T14:41:10.876Z,1.27
2018-08-22T14:43:44.904Z,0.50
2018-08-22T14:46:18.758Z,1.00
2018-08-22T14:48:52.737Z,1.10
2018-08-22T14:51:26.619Z,0.80
2018-08-22T14:54:00.341Z,1.10
2018-08-22T14:56:34.167Z,0.40
2018-08-22T14:59:07.864Z,0.70
2018-08-22T15:01:41.770Z,1.00
2018-08-22T15:04:15.621Z,1.07
2018-08-22T15:06:49.469Z,1.00
2018-08-22T15:09:23.145Z,0.97
2018-08-22T15:11:57.077Z,0.80
2018-08-22T15:14:30.762Z,0.90
2018-08-22T15:17:04.545Z,0.90
2018-08-22T15:19:38.440Z,0.83
2018-08-22T15:22:12.349Z,0.83
2018-08-22T15:24:46.058Z,0.90
2018-08-22T15:27:19.855Z,1.90
2018-08-22T15:29:54.529Z,1.00
2018-08-22T15:32:28.671Z,1.00
2018-08-22T15:35:03.139Z,0.70
2018-08-22T15:37:37.789Z,0.90
2018-08-22T15:40:12.015Z,1.00
2018-08-22T15:42:46.036Z,0.90
2018-08-22T15:45:21.106Z,1.07
2018-08-22T15:47:55.193Z,1.27
2018-08-22T15:50:30.423Z,1.20
2018-08-22T15:53:04.827Z,0.90
2018-08-22T15:55:39.909Z,1.20
2018-08-22T15:58:14.815Z,0.70
2018-08-22T16:00:50.728Z,1.00
2018-08-22T16:03:25.854Z,1.03
2018-08-22T16:05:59.607Z,0.93
2018-08-22T16:08:34.200Z,0.73
2018-08-22T16:11:09.293Z,1.20
2018-08-22T16:13:44.716Z,0.90
2018-08-22T16:16:18.650Z,0.87
2018-08-22T16:18:53.516Z,0.90
2018-08-22T16:21:27.533Z,1.00
2018-08-22T16:24:01.441Z,0.93
2018-08-22T16:26:36.714Z,1.20
2018-08-22T16:29:11.419Z,0.90
2018-08-22T16:31:46.153Z,1.13
2018-08-22T16:34:21.012Z,1.23
2018-08-22T16:36:54.790Z,0.80
2018-08-22T16:39:41.778Z,0.90
2018-08-22T16:42:16.590Z,1.00
2018-08-22T16:44:51.295Z,0.80
2018-08-22T16:47:30.026Z,0.80
2018-08-22T16:50:05.564Z,0.83
2018-08-22T16:52:39.345Z,1.10
2018-08-22T16:55:17.525Z,1.10
2018-08-22T16:57:52.024Z,0.97
2018-08-22T17:00:34.072Z,1.03
2018-08-22T17:03:09.361Z,0.80
2018-08-22T17:05:44.141Z,0.70
2018-08-22T17:08:18.738Z,0.80
2018-08-22T17:10:58.293Z,1.00
2018-08-22T17:13:43.483Z,0.87
2018-08-22T17:16:18.977Z,0.67
2018-08-22T17:18:53.421Z,0.67
2018-08-22T17:21:28.176Z,0.80
2018-08-22T17:24:02.653Z,0.90
2018-08-22T17:26:37.293Z,1.10
2018-08-22T17:29:11.404Z,1.10
2018-08-22T17:31:51.079Z,1.10
2018-08-22T17:34:25.146Z,1.07
2018-08-22T17:37:06.662Z,1.03
2018-08-22T17:39:40.924Z,0.90
2018-08-22T17:42:15.329Z,1.30
2018-08-22T17:44:52.003Z,1.20
2018-08-22T17:47:26.845Z,1.10
2018-08-22T17:50:06.723Z,1.30
2018-08-22T17:52:41.160Z,1.10
2018-08-22T17:55:16.108Z,1.23
2018-08-22T17:57:50.658Z,1.27
2018-08-22T18:00:26.898Z,1.50
2018-08-22T18:03:01.972Z,1.50
2018-08-22T18:05:38.257Z,1.20
2018-08-22T18:08:12.237Z,1.03
2018-08-22T18:10:46.381Z,0.93
2018-08-22T18:13:20.520Z,1.10
2018-08-22T18:15:55.129Z,1.20
2018-08-22T18:18:29.084Z,1.53
2018-08-22T18:21:04.120Z,1.10
2018-08-22T18:23:39.125Z,1.50
2018-08-22T18:26:13.395Z,1.10
2018-08-22T18:28:48.038Z,1.30
2018-08-22T18:31:22.505Z,1.20
2018-08-22T18:33:57.519Z,1.40
2018-08-22T18:36:32.995Z,1.40
2018-08-22T18:39:07.930Z,1.13
2018-08-22T18:41:42.622Z,1.13
2018-08-22T18:44:16.576Z,1.40
2018-08-22T18:46:50.821Z,1.30
2018-08-22T18:49:25.011Z,1.00
2018-08-22T18:51:59.105Z,1.20
2018-08-22T18:54:33.630Z,1.53
2018-08-22T18:57:07.976Z,1.20
2018-08-22T18:59:42.098Z,1.50
2018-08-22T19:02:16.475Z,1.30
2018-08-22T19:04:50.362Z,1.37
2018-08-22T19:07:24.535Z,1.50
2018-08-22T19:10:00.315Z,1.93
2018-08-22T19:12:35.006Z,1.33
2018-08-22T19:15:09.126Z,1.20
2018-08-22T19:17:44.878Z,1.10
2018-08-22T19:20:19.058Z,1.47
2018-08-22T19:22:53.649Z,1.40
2018-08-22T19:25:27.508Z,1.20
2018-08-22T19:28:01.990Z,1.53
2018-08-22T19:30:37.422Z,1.27
2018-08-22T19:33:13.659Z,1.40
2018-08-22T19:35:47.848Z,1.63
2018-08-22T19:38:23.355Z,1.60
2018-08-22T19:40:59.639Z,1.13
2018-08-22T19:43:34.415Z,1.30
2018-08-22T19:46:08.387Z,1.50
2018-08-22T19:48:43.121Z,1.40
2018-08-22T19:51:17.299Z,1.43
2018-08-22T19:53:57.628Z,1.40
2018-08-22T19:56:31.824Z,1.40
2018-08-22T19:59:06.908Z,1.30
2018-08-22T20:01:41.082Z,1.47
2018-08-22T20:04:15.082Z,1.00
2018-08-22T20:06:49.326Z,1.10
2018-08-22T20:09:24.236Z,1.63
2018-08-22T20:11:58.393Z,1.30
2018-08-22T20:14:32.924Z,1.30
2018-08-22T20:17:07.093Z,1.77
2018-08-22T20:19:41.483Z,1.33
2018-08-22T20:22:15.620Z,1.33
2018-08-22T20:24:50.537Z,1.30
2018-08-22T20:27:25.378Z,1.20
2018-08-22T20:30:04.917Z,1.30
2018-08-22T20:32:40.526Z,1.30
2018-08-22T20:35:19.998Z,1.40
2018-08-22T20:37:54.312Z,1.40
2018-08-22T20:40:28.801Z,1.50
2018-08-22T20:43:02.957Z,1.53
2018-08-22T20:45:38.816Z,1.33
2018-08-22T20:48:14.560Z,1.30
2018-08-22T20:50:49.082Z,1.43
2018-08-22T20:53:23.888Z,1.50
2018-08-22T20:55:58.909Z,1.30
2018-08-22T20:58:34.562Z,1.40
2018-08-22T21:01:09.166Z,1.50
2018-08-22T21:03:43.664Z,1.40
2018-08-22T21:06:19.085Z,1.60
2018-08-22T21:08:54.192Z,1.00
2018-08-22T21:11:29.061Z,1.20
2018-08-22T21:14:04.057Z,1.23
2018-08-22T21:16:38.751Z,1.20
2018-08-22T21:19:13.457Z,1.20
2018-08-22T21:21:47.911Z,1.37
2018-08-22T21:24:22.429Z,1.40
2018-08-22T21:26:56.459Z,1.47
2018-08-22T21:29:30.932Z,1.20
2018-08-22T21:32:06.544Z,1.60
2018-08-22T21:34:40.772Z,1.40
2018-08-22T21:37:20.911Z,1.50
2018-08-22T21:39:55.931Z,1.23
2018-08-22T21:42:34.133Z,1.03
2018-08-22T21:45:08.338Z,1.30
2018-08-22T21:47:43.241Z,1.50
2018-08-22T21:50:17.629Z,1.60
2018-08-22T21:52:57.099Z,1.50
2018-08-22T21:55:37.427Z,1.47
2018-08-22T21:58:12.243Z,1.30
2018-08-22T22:00:46.221Z,1.43
2018-08-22T22:03:26.494Z,1.20
2018-08-22T22:06:04.288Z,1.40
2018-08-22T22:08:43.162Z,1.47
2018-08-22T22:11:17.990Z,1.70
2018-08-22T22:13:52.505Z,1.10
2018-08-22T22:16:31.159Z,1.20
2018-08-22T22:19:05.888Z,1.30
2018-08-22T22:21:40.029Z,1.20
2018-08-22T22:24:13.969Z,1.50
2018-08-22T22:26:48.014Z,1.40
2018-08-22T22:29:24.009Z,1.20
2018-08-22T22:31:59.120Z,1.27
2018-08-22T22:34:33.491Z,1.30
2018-08-22T22:37:08.613Z,1.10
2018-08-22T22:39:44.808Z,1.63
2018-08-22T22:42:27.954Z,1.47
2018-08-22T22:45:02.105Z,1.07
2018-08-22T22:47:36.620Z,1.40
2018-08-22T22:50:10.739Z,1.23
2018-08-22T22:52:45.915Z,1.33
2018-08-22T22:55:20.013Z,1.40
2018-08-22T22:57:54.476Z,1.67
2018-08-22T23:00:29.657Z,1.23
2018-08-22T23:03:06.980Z,1.57
2018-08-22T23:05:41.164Z,1.33
2018-08-22T23:08:15.403Z,1.00
2018-08-22T23:10:49.329Z,1.30
2018-08-22T23:13:28.012Z,1.07
2018-08-22T23:16:02.821Z,1.30
2018-08-22T23:18:37.011Z,1.57
2018-08-22T23:21:11.178Z,1.30
2018-08-22T23:23:45.821Z,1.30
2018-08-22T23:26:20.760Z,1.70
2018-08-22T23:28:55.138Z,1.13
2018-08-22T23:31:29.235Z,1.40
2018-08-22T23:34:04.148Z,1.30
2018-08-22T23:36:38.357Z,1.37
2018-08-22T23:39:12.382Z,1.20
2018-08-22T23:41:46.800Z,1.33
2018-08-22T23:44:20.729Z,1.10
2018-08-22T23:46:54.721Z,1.27
2018-08-22T23:49:28.868Z,1.50
2018-08-22T23:52:02.881Z,1.40
2018-08-22T23:54:38.846Z,1.30
2018-08-22T23:57:18.322Z,1.30
2018-08-22T23:59:52.400Z,1.43
